Aérodrome :
LOGIN :

S'inscrire | Disclaimer

   EN    FR    IT 

 










Légende :    VFR   VFR Marginal   IFR   IFR Intensif   IFR Très Intensif
Visi : 
Plafond : 
>= 8 km
>= 3000ft
5 à 8 km
1000 à 3000 ft
1500m à 5 km
500 à 1000 ft
800 à 1500m
200 à 500 ft
< 800m
< 200 ft
Symboles :   Orages  Brouillard  Fortes neiges  Fortes précipitations  Vent > 20 kt
SIGMETs :   Divers  Orages  Givrage  Turbulence  Onde Orograph.  Cendres Volcan.






- Altitude de l'aérodrome : 1187 ft


LIBV - Gioia del Colle Bari

DERNIER METAR :
  • 010655Z 15009KT CAVOK 33/15 Q1011 RMK SCT SCT180 VIS MIN 9999 WIND THR32 18006KT WIND THR14 16008KT BLU

METARs EXPIRÉS :
  • 010555Z 19004KT CAVOK 29/17 Q1011 RMK SCT SCT170 VIS MIN 9999 WIND THR32 19005KT WIND THR14 20003KT BLU
  • 010455Z 19003KT CAVOK 24/17 Q1011 RMK SKC VIS MIN 9999 WIND THR32 19005KT WIND THR14 19004KT BLU

TAF TAF LIBV
Valide du 01 à 06h jusqu'au 01 à 15h UTC


010500Z 0106/0115 18008KT CAVOK
BECMG 0109/0111 18012G22KT 9999 FEW035



MET'MAP, la Météo Aéronautique d'un coup d'oeil ! - Copyright ORBIFLY Décembre 2007 - Disclaimer

ORBIFLY MET'MAP TEAM :

Programmation & Développement : Alexandra Zaïnal
Sur une idée originale de : Baudouin d'Aumeries
Assistance à la programmation : Marc-Olivier Méhu
Soutien technique & logistique : Manuel Goepfert

Contact : metmap@orbifly.com




SOURCES & CREDITS :

   NOAA